createdAt,value
2023-01-12T00:01:55.999Z,8.80
2023-01-12T00:04:42.691Z,8.70
2023-01-12T00:07:29.459Z,8.80
2023-01-12T00:10:17.751Z,8.80
2023-01-12T00:13:04.465Z,8.80
2023-01-12T00:16:08.344Z,8.90
2023-01-12T00:18:54.966Z,8.80
2023-01-12T00:21:56.316Z,8.90
2023-01-12T00:24:45.411Z,8.90
2023-01-12T00:27:33.370Z,8.80
2023-01-12T00:30:19.955Z,8.80
2023-01-12T00:33:06.655Z,8.80
2023-01-12T00:35:53.041Z,8.80
2023-01-12T00:38:39.925Z,8.80
2023-01-12T00:41:44.085Z,8.80
2023-01-12T00:44:49.787Z,8.80
2023-01-12T00:47:36.349Z,8.90
2023-01-12T00:50:23.422Z,8.90
2023-01-12T00:53:09.786Z,8.90
2023-01-12T00:56:01.256Z,8.90
2023-01-12T00:58:48.291Z,9.00
2023-01-12T01:01:36.593Z,9.00
2023-01-12T01:04:23.487Z,9.10
2023-01-12T01:07:09.820Z,9.10
2023-01-12T01:09:56.256Z,9.10
2023-01-12T01:12:43.171Z,9.10
2023-01-12T01:15:29.616Z,9.10
2023-01-12T01:18:17.468Z,9.10
2023-01-12T01:21:04.133Z,9.10
2023-01-12T01:23:50.681Z,9.10
2023-01-12T01:26:37.383Z,9.20
2023-01-12T01:29:24.083Z,9.20
2023-01-12T01:32:10.765Z,9.20
2023-01-12T01:34:58.459Z,9.20
2023-01-12T01:37:45.118Z,9.20
2023-01-12T01:40:31.855Z,9.20
2023-01-12T01:43:20.372Z,9.20
2023-01-12T01:46:11.111Z,9.20
2023-01-12T01:48:58.472Z,9.20
2023-01-12T01:51:47.274Z,9.20
2023-01-12T01:54:38.796Z,9.30
2023-01-12T01:57:27.564Z,9.20
2023-01-12T02:00:14.927Z,9.20
2023-01-12T02:03:05.363Z,9.20
2023-01-12T02:05:53.252Z,9.20
2023-01-12T02:08:46.668Z,9.20
2023-01-12T02:11:50.520Z,9.20
2023-01-12T02:14:53.565Z,9.20
2023-01-12T02:17:54.038Z,9.10
2023-01-12T02:21:12.385Z,9.00
2023-01-12T02:24:35.109Z,9.00
2023-01-12T02:28:02.205Z,9.00
2023-01-12T02:31:16.343Z,9.10
2023-01-12T02:34:16.652Z,9.00
2023-01-12T02:37:14.400Z,9.00
2023-01-12T02:40:08.338Z,9.00
2023-01-12T02:43:03.741Z,9.00
2023-01-12T02:45:55.706Z,9.00
2023-01-12T02:48:49.354Z,9.00
2023-01-12T02:51:42.006Z,9.00
2023-01-12T02:54:29.567Z,8.90
2023-01-12T02:57:17.490Z,8.90
2023-01-12T03:00:05.336Z,9.00
2023-01-12T03:02:51.768Z,9.00
2023-01-12T03:05:43.163Z,9.00
2023-01-12T03:08:32.362Z,9.00
2023-01-12T03:11:21.551Z,9.10
2023-01-12T03:14:08.758Z,9.10
2023-01-12T03:16:57.204Z,9.10
2023-01-12T03:19:47.543Z,9.10
2023-01-12T03:22:36.928Z,9.10
2023-01-12T03:25:26.948Z,9.20
2023-01-12T03:28:15.967Z,9.20
2023-01-12T03:31:07.786Z,9.20
2023-01-12T03:33:56.033Z,9.20
2023-01-12T03:36:54.829Z,9.20
2023-01-12T03:39:50.882Z,9.20
2023-01-12T03:42:46.793Z,9.20
2023-01-12T03:45:39.707Z,9.20
2023-01-12T03:48:30.935Z,9.20
2023-01-12T03:51:21.984Z,9.20
2023-01-12T03:54:12.099Z,9.20
2023-01-12T03:57:00.313Z,9.20
2023-01-12T03:59:47.249Z,9.20
2023-01-12T04:02:35.192Z,9.10
2023-01-12T04:05:21.957Z,9.20
2023-01-12T04:08:08.429Z,9.20
2023-01-12T04:10:54.830Z,9.20
2023-01-12T04:13:42.639Z,9.20
2023-01-12T04:16:29.103Z,9.20
2023-01-12T04:19:15.973Z,9.20
2023-01-12T04:22:19.813Z,9.20
2023-01-12T04:25:09.368Z,9.20
2023-01-12T04:28:00.473Z,9.20
2023-01-12T04:30:48.366Z,9.20
2023-01-12T04:33:35.017Z,9.30
2023-01-12T04:36:21.500Z,9.20
2023-01-12T04:39:07.706Z,9.20
2023-01-12T04:41:54.233Z,9.30
2023-01-12T04:44:40.686Z,9.20
2023-01-12T04:47:28.531Z,9.30
2023-01-12T04:50:15.854Z,9.30
2023-01-12T04:53:04.124Z,9.30
2023-01-12T04:55:50.615Z,9.30
2023-01-12T04:58:37.634Z,9.30
2023-01-12T05:01:24.532Z,9.30
2023-01-12T05:04:12.641Z,9.30
2023-01-12T05:06:58.978Z,9.30
2023-01-12T05:10:02.562Z,9.30
2023-01-12T05:12:49.376Z,9.30
2023-01-12T05:15:35.894Z,9.30
2023-01-12T05:18:22.449Z,9.30
2023-01-12T05:21:10.221Z,9.30
2023-01-12T05:23:56.837Z,9.40
2023-01-12T05:26:43.161Z,9.40
2023-01-12T05:29:29.802Z,9.40
2023-01-12T05:32:16.522Z,9.40
2023-01-12T05:35:03.631Z,9.40
2023-01-12T05:37:51.337Z,9.30
2023-01-12T05:40:37.841Z,9.40
2023-01-12T05:43:42.094Z,9.40
2023-01-12T05:46:30.435Z,9.40
2023-01-12T05:49:16.833Z,9.40
2023-01-12T05:52:03.265Z,9.40
2023-01-12T05:54:51.015Z,9.40
2023-01-12T05:57:37.438Z,9.40
2023-01-12T06:00:24.351Z,9.40
2023-01-12T06:03:10.673Z,9.40
2023-01-12T06:05:58.463Z,9.40
2023-01-12T06:08:45.025Z,9.40
2023-01-12T06:11:50.668Z,9.40
2023-01-12T06:14:37.412Z,9.40
2023-01-12T06:17:23.813Z,9.40
2023-01-12T06:20:14.872Z,9.40
2023-01-12T06:23:02.745Z,9.40
2023-01-12T06:25:49.409Z,9.40
2023-01-12T06:28:38.527Z,9.40
2023-01-12T06:31:25.228Z,9.40
2023-01-12T06:34:12.136Z,9.40
2023-01-12T06:36:58.370Z,9.40
2023-01-12T06:39:44.652Z,9.30
2023-01-12T06:42:31.630Z,9.30
2023-01-12T06:45:19.459Z,9.30
2023-01-12T06:48:06.573Z,9.40
2023-01-12T06:50:53.533Z,9.40
2023-01-12T06:53:40.067Z,9.40
2023-01-12T06:56:26.441Z,9.30
2023-01-12T06:59:13.512Z,9.30
2023-01-12T07:02:03.188Z,9.30
2023-01-12T07:04:49.926Z,9.30
2023-01-12T07:07:39.878Z,9.20
2023-01-12T07:10:26.591Z,9.30
2023-01-12T07:13:13.344Z,9.20
2023-01-12T07:16:00.807Z,9.20
2023-01-12T07:18:49.653Z,9.20
2023-01-12T07:21:36.037Z,9.20
2023-01-12T07:24:22.441Z,9.10
2023-01-12T07:27:08.913Z,9.10
2023-01-12T07:29:55.851Z,9.10
2023-01-12T07:32:42.325Z,9.10
2023-01-12T07:35:30.097Z,9.10
2023-01-12T07:38:16.486Z,9.10
2023-01-12T07:41:03.298Z,9.10
2023-01-12T07:43:49.858Z,9.00
2023-01-12T07:46:36.430Z,9.00
2023-01-12T07:49:23.448Z,9.00
2023-01-12T07:52:13.007Z,9.00
2023-01-12T07:54:59.442Z,9.00
2023-01-12T07:57:45.986Z,9.00
2023-01-12T08:00:33.004Z,9.00
2023-01-12T08:03:19.425Z,9.00
2023-01-12T08:06:06.171Z,9.00
2023-01-12T08:08:55.577Z,9.00
2023-01-12T08:11:42.315Z,9.00
2023-01-12T08:14:33.274Z,8.90
2023-01-12T08:17:22.258Z,9.00
2023-01-12T08:20:15.040Z,9.00
2023-01-12T08:23:05.700Z,9.00
2023-01-12T08:25:59.210Z,9.00
2023-01-12T08:28:49.284Z,9.00
2023-01-12T08:31:36.902Z,9.00
2023-01-12T08:34:23.545Z,9.00
2023-01-12T08:37:13.158Z,9.00
2023-01-12T08:40:00.060Z,9.00
2023-01-12T08:42:47.908Z,9.00
2023-01-12T08:45:34.735Z,9.00
2023-01-12T08:48:21.168Z,9.00
2023-01-12T08:51:09.033Z,9.10
2023-01-12T08:53:55.779Z,9.10
2023-01-12T08:56:42.101Z,9.00
2023-01-12T08:59:29.950Z,9.00
2023-01-12T09:02:17.292Z,9.00
2023-01-12T09:05:04.158Z,9.10
2023-01-12T09:07:50.706Z,9.00
2023-01-12T09:10:37.261Z,9.00
2023-01-12T09:13:23.619Z,9.10
2023-01-12T09:16:13.869Z,9.00
2023-01-12T09:19:01.426Z,9.10
2023-01-12T09:21:48.054Z,9.10
2023-01-12T09:24:34.461Z,9.20
2023-01-12T09:27:20.956Z,9.20
2023-01-12T09:30:08.746Z,9.10
2023-01-12T09:32:57.032Z,9.20
2023-01-12T09:35:44.551Z,9.20
2023-01-12T09:38:31.079Z,9.20
2023-01-12T09:41:40.478Z,9.20
2023-01-12T09:44:47.183Z,9.20
2023-01-12T09:47:37.228Z,9.30
2023-01-12T09:50:29.151Z,9.30
2023-01-12T09:53:21.159Z,9.40
2023-01-12T09:56:17.530Z,9.40
2023-01-12T09:59:25.676Z,9.50
2023-01-12T10:02:14.405Z,9.50
2023-01-12T10:05:04.160Z,9.60
2023-01-12T10:07:55.559Z,9.60
2023-01-12T10:10:48.002Z,9.60
2023-01-12T10:13:54.521Z,9.70
2023-01-12T10:16:51.480Z,9.70
2023-01-12T10:19:50.845Z,9.80
2023-01-12T10:22:42.818Z,9.80
2023-01-12T10:25:38.220Z,9.90
2023-01-12T10:28:29.763Z,9.90
2023-01-12T10:31:20.181Z,9.90
2023-01-12T10:34:08.815Z,9.90
2023-01-12T10:37:00.865Z,9.90
2023-01-12T10:39:47.506Z,10.00
2023-01-12T10:43:04.173Z,10.00
2023-01-12T10:46:09.919Z,10.00
2023-01-12T10:49:17.496Z,10.10
2023-01-12T10:52:10.510Z,10.10
2023-01-12T10:54:58.923Z,10.20
2023-01-12T10:57:48.312Z,10.20
2023-01-12T11:00:35.205Z,10.20
2023-01-12T11:03:34.655Z,10.30
2023-01-12T11:06:27.760Z,10.20
2023-01-12T11:09:24.858Z,10.30
2023-01-12T11:12:24.685Z,10.30
2023-01-12T11:15:19.860Z,10.30
2023-01-12T11:18:30.056Z,10.40
2023-01-12T11:21:20.601Z,10.40
2023-01-12T11:24:15.396Z,10.50
2023-01-12T11:27:09.769Z,10.50
2023-01-12T11:29:59.849Z,10.50
2023-01-12T11:32:54.325Z,10.60
2023-01-12T11:35:45.041Z,10.60
2023-01-12T11:38:38.966Z,10.70
2023-01-12T11:41:32.077Z,10.70
2023-01-12T11:44:24.763Z,10.70
2023-01-12T11:47:14.741Z,10.80
2023-01-12T11:50:07.861Z,10.80
2023-01-12T11:52:55.945Z,10.80
2023-01-12T11:55:55.120Z,10.90
2023-01-12T11:58:53.124Z,10.90
2023-01-12T12:01:50.394Z,10.80
2023-01-12T12:04:56.821Z,10.90
2023-01-12T12:07:56.528Z,10.90
2023-01-12T12:10:49.229Z,10.90
2023-01-12T12:13:42.904Z,10.90
2023-01-12T12:16:37.359Z,10.90
2023-01-12T12:19:32.953Z,10.90
2023-01-12T12:22:33.288Z,10.80
2023-01-12T12:25:28.910Z,10.90
2023-01-12T12:28:55.039Z,10.90
2023-01-12T12:31:55.981Z,10.90
2023-01-12T12:34:55.405Z,10.90
2023-01-12T12:37:58.080Z,10.90
2023-01-12T12:41:16.653Z,10.90
2023-01-12T12:44:35.333Z,11.00
2023-01-12T12:47:54.169Z,11.00
2023-01-12T12:50:45.206Z,11.00
2023-01-12T12:53:35.642Z,11.00
2023-01-12T12:56:25.521Z,10.90
2023-01-12T12:59:54.589Z,11.00
2023-01-12T13:02:54.147Z,10.90
2023-01-12T13:05:46.331Z,11.00
2023-01-12T13:08:36.265Z,11.00
2023-01-12T13:11:47.730Z,11.10
2023-01-12T13:14:36.091Z,11.10
2023-01-12T13:17:42.433Z,11.10
2023-01-12T13:20:55.755Z,11.10
2023-01-12T13:23:44.786Z,11.20
2023-01-12T13:26:43.756Z,11.20
2023-01-12T13:29:44.488Z,11.20
2023-01-12T13:32:50.856Z,11.20
2023-01-12T13:36:10.853Z,11.20
2023-01-12T13:39:07.956Z,11.20
2023-01-12T13:42:14.859Z,11.20
2023-01-12T13:45:02.966Z,11.20
2023-01-12T13:47:52.201Z,11.10
2023-01-12T13:50:39.455Z,11.20
2023-01-12T13:53:28.868Z,11.10
2023-01-12T13:56:20.726Z,11.20
2023-01-12T13:59:17.987Z,11.20
2023-01-12T14:02:05.255Z,11.10
2023-01-12T14:05:19.614Z,11.20
2023-01-12T14:08:51.345Z,11.20
2023-01-12T14:12:07.764Z,11.10
2023-01-12T14:15:37.003Z,11.10
2023-01-12T14:18:25.895Z,11.10
2023-01-12T14:21:25.106Z,11.10
2023-01-12T14:24:16.872Z,11.10
2023-01-12T14:27:16.921Z,11.10
2023-01-12T14:30:03.298Z,11.10
2023-01-12T14:32:52.179Z,11.10
2023-01-12T14:35:46.907Z,11.10
2023-01-12T14:38:35.256Z,11.10
2023-01-12T14:41:58.076Z,11.10
2023-01-12T14:45:08.527Z,11.10
2023-01-12T14:47:56.359Z,11.10
2023-01-12T14:51:00.646Z,11.10
2023-01-12T14:53:49.085Z,11.00
2023-01-12T14:56:42.187Z,11.10
2023-01-12T14:59:31.589Z,11.10
2023-01-12T15:02:32.583Z,11.10
2023-01-12T15:05:25.388Z,11.00
2023-01-12T15:08:26.740Z,11.10
2023-01-12T15:11:13.206Z,11.10
2023-01-12T15:14:01.061Z,11.20
2023-01-12T15:17:04.967Z,11.10
2023-01-12T15:20:08.888Z,11.10
2023-01-12T15:23:14.220Z,11.10
2023-01-12T15:26:00.854Z,11.10
2023-01-12T15:28:48.433Z,11.10
2023-01-12T15:31:36.815Z,11.10
2023-01-12T15:34:23.280Z,11.00
2023-01-12T15:37:14.558Z,11.10
2023-01-12T15:40:02.545Z,11.10
2023-01-12T15:42:53.078Z,11.10
2023-01-12T15:45:42.668Z,11.00
2023-01-12T15:48:29.610Z,11.10
2023-01-12T15:51:16.957Z,11.00
2023-01-12T15:54:05.146Z,11.00
2023-01-12T15:56:53.943Z,11.00
2023-01-12T15:59:41.009Z,11.00
2023-01-12T16:02:34.230Z,10.90
2023-01-12T16:05:22.865Z,11.00
2023-01-12T16:08:09.218Z,11.00
2023-01-12T16:11:12.882Z,11.00
2023-01-12T16:14:00.812Z,11.00
2023-01-12T16:16:47.393Z,11.10
2023-01-12T16:19:40.999Z,11.10
2023-01-12T16:22:28.346Z,11.10
2023-01-12T16:25:16.415Z,11.10
2023-01-12T16:28:02.881Z,11.10
2023-01-12T16:30:51.026Z,11.10
2023-01-12T16:33:37.808Z,11.10
2023-01-12T16:36:24.256Z,11.10
2023-01-12T16:39:13.029Z,11.20
2023-01-12T16:42:03.601Z,11.10
2023-01-12T16:44:50.974Z,11.10
2023-01-12T16:47:39.043Z,11.10
2023-01-12T16:50:25.581Z,11.10
2023-01-12T16:53:13.344Z,11.10
2023-01-12T16:56:03.082Z,11.10
2023-01-12T16:58:49.571Z,11.10
2023-01-12T17:01:36.657Z,11.10
2023-01-12T17:04:25.244Z,11.10
2023-01-12T17:07:12.165Z,11.10
2023-01-12T17:09:58.942Z,11.10
2023-01-12T17:12:54.460Z,11.00
2023-01-12T17:15:46.576Z,11.00
2023-01-12T17:18:33.197Z,11.10
2023-01-12T17:21:21.562Z,11.00
2023-01-12T17:24:08.402Z,11.00
2023-01-12T17:26:56.384Z,11.00
2023-01-12T17:29:43.517Z,11.00
2023-01-12T17:32:30.447Z,11.00
2023-01-12T17:35:16.899Z,11.00
2023-01-12T17:38:04.670Z,11.00
2023-01-12T17:40:50.844Z,11.00
2023-01-12T17:43:37.352Z,11.00
2023-01-12T17:46:24.352Z,11.00
2023-01-12T17:49:12.308Z,11.00
2023-01-12T17:51:58.586Z,11.00
2023-01-12T17:54:46.457Z,11.00
2023-01-12T17:57:33.144Z,11.00
2023-01-12T18:00:20.298Z,10.90
2023-01-12T18:03:06.711Z,11.00
2023-01-12T18:06:04.404Z,11.00
2023-01-12T18:08:52.814Z,11.00
2023-01-12T18:11:40.713Z,11.00
2023-01-12T18:14:27.374Z,11.00
2023-01-12T18:17:14.211Z,11.00
2023-01-12T18:20:00.669Z,11.00
2023-01-12T18:22:47.004Z,11.00
2023-01-12T18:25:37.792Z,11.00
2023-01-12T18:28:25.631Z,11.00
2023-01-12T18:31:14.217Z,11.00
2023-01-12T18:34:04.652Z,11.00
2023-01-12T18:36:51.398Z,11.00
2023-01-12T18:39:37.898Z,11.00
2023-01-12T18:42:41.815Z,11.00
2023-01-12T18:45:29.858Z,11.00
2023-01-12T18:48:21.211Z,11.00
2023-01-12T18:51:25.185Z,10.90
2023-01-12T18:54:12.276Z,10.90
2023-01-12T18:56:58.690Z,10.90
2023-01-12T18:59:45.533Z,11.00
2023-01-12T19:02:33.668Z,11.00
2023-01-12T19:05:24.330Z,11.00
2023-01-12T19:08:42.678Z,11.00
2023-01-12T19:11:29.320Z,11.00
2023-01-12T19:14:48.301Z,11.00
2023-01-12T19:17:38.230Z,11.00
2023-01-12T19:20:28.987Z,11.00
2023-01-12T19:23:33.176Z,11.00
2023-01-12T19:26:37.194Z,10.90
2023-01-12T19:29:23.712Z,10.90
2023-01-12T19:32:10.218Z,10.90
2023-01-12T19:35:09.774Z,10.90
2023-01-12T19:37:57.414Z,10.90
2023-01-12T19:40:47.526Z,10.90
2023-01-12T19:43:34.862Z,11.00
2023-01-12T19:46:21.226Z,10.90
2023-01-12T19:49:08.397Z,11.00
2023-01-12T19:51:56.479Z,11.00
2023-01-12T19:54:43.121Z,10.90
2023-01-12T19:57:30.286Z,10.90
2023-01-12T20:00:17.727Z,10.90
2023-01-12T20:03:04.327Z,10.90
2023-01-12T20:05:52.962Z,10.90
2023-01-12T20:08:41.572Z,11.00
2023-01-12T20:11:28.162Z,10.90
2023-01-12T20:14:15.236Z,11.00
2023-01-12T20:17:01.751Z,11.00
2023-01-12T20:19:48.991Z,11.00
2023-01-12T20:22:36.134Z,10.90
2023-01-12T20:25:27.332Z,10.90
2023-01-12T20:28:15.224Z,10.90
2023-01-12T20:31:01.667Z,11.00
2023-01-12T20:33:48.588Z,11.00
2023-01-12T20:36:34.982Z,11.00
2023-01-12T20:39:24.043Z,11.00
2023-01-12T20:42:11.934Z,10.90
2023-01-12T20:44:58.636Z,10.90
2023-01-12T20:47:45.445Z,10.90
2023-01-12T20:50:31.925Z,11.00
2023-01-12T20:53:18.473Z,10.90
2023-01-12T20:56:05.899Z,10.90
2023-01-12T20:58:53.978Z,10.90
2023-01-12T21:01:40.887Z,11.00
2023-01-12T21:04:27.831Z,11.00
2023-01-12T21:07:14.679Z,11.00
2023-01-12T21:10:01.039Z,11.00
2023-01-12T21:12:47.456Z,11.00
2023-01-12T21:15:35.489Z,11.00
2023-01-12T21:18:22.142Z,10.90
2023-01-12T21:21:08.668Z,10.90
2023-01-12T21:23:55.061Z,10.90
2023-01-12T21:26:41.425Z,10.90
2023-01-12T21:29:27.753Z,10.90
2023-01-12T21:32:15.634Z,10.90
2023-01-12T21:35:02.492Z,10.90
2023-01-12T21:37:48.914Z,10.90
2023-01-12T21:40:35.372Z,11.00
2023-01-12T21:43:22.373Z,11.00
2023-01-12T21:46:11.772Z,11.00
2023-01-12T21:48:59.702Z,11.10
2023-01-12T21:51:53.650Z,11.00
2023-01-12T21:54:40.218Z,11.00
2023-01-12T21:57:26.824Z,11.00
2023-01-12T22:00:14.793Z,11.00
2023-01-12T22:03:01.276Z,11.10
2023-01-12T22:05:49.560Z,11.00
2023-01-12T22:08:37.199Z,11.00
2023-01-12T22:11:23.560Z,11.10
2023-01-12T22:14:10.142Z,11.10
2023-01-12T22:16:56.556Z,11.10
2023-01-12T22:19:43.165Z,11.10
2023-01-12T22:22:31.058Z,11.10
2023-01-12T22:25:18.454Z,11.10
2023-01-12T22:28:05.459Z,11.10
2023-01-12T22:30:52.185Z,11.10
2023-01-12T22:33:39.055Z,11.10
2023-01-12T22:36:26.161Z,11.10
2023-01-12T22:39:14.513Z,11.20
2023-01-12T22:42:01.101Z,11.10
2023-01-12T22:44:47.450Z,11.10
2023-01-12T22:47:47.211Z,11.10
2023-01-12T22:50:34.970Z,11.10
2023-01-12T22:53:22.286Z,11.10
2023-01-12T22:56:11.980Z,11.20
2023-01-12T22:58:58.808Z,11.20
2023-01-12T23:01:45.803Z,11.20
2023-01-12T23:04:32.841Z,11.20
2023-01-12T23:07:20.474Z,11.20
2023-01-12T23:10:08.501Z,11.20
2023-01-12T23:13:14.131Z,11.20
2023-01-12T23:16:05.241Z,11.20
2023-01-12T23:18:52.564Z,11.20
2023-01-12T23:21:41.629Z,11.20
2023-01-12T23:24:28.724Z,11.20
2023-01-12T23:27:15.427Z,11.20
2023-01-12T23:30:03.927Z,11.20
2023-01-12T23:32:51.071Z,11.20
2023-01-12T23:35:40.531Z,11.20
2023-01-12T23:38:27.321Z,11.20
2023-01-12T23:41:15.230Z,11.20
2023-01-12T23:44:03.907Z,11.20
2023-01-12T23:46:53.996Z,11.20
2023-01-12T23:49:40.860Z,11.20
2023-01-12T23:52:28.022Z,11.10
2023-01-12T23:55:14.796Z,11.20
2023-01-12T23:58:02.385Z,11.20
